KRDD

Redding Municipal Airport

Redding, California, USA
METAR KRDD 140053Z 17003KT 9SM CLR 12/01 A3017 RMK AO2 SLP215 T01170011
Observed Flight Rules
Dec-14 @ 00:53 UTC (an hour ago) Visual Flight Rules
Wind Visibility Clouds
170° at 3 knots 9 miles
  • Clear skies
Temperatures Readings
Current 12°C / 54°F
Dewpoint 1°C / 34°F
Humidity 47%
Altimeter 30.17" Hg
Pressure 1021.5 hPa
Elevation 155
METAR KRDD 140053Z 17003KT 9SM CLR 12/01 A3017 RMK AO2 SLP215 T01170011
Observed Flight Rules
Dec-14 @ 00:53 UTC
(an hour ago)
VFR
Wind Visibility
170° at 3 knots 9 miles
Clouds
  • Clear skies
Temperature Dewpoint
12°C / 54°F 1°C / 34°F
Humidity Altimeter Pressure
47% 30.17" Hg 1021.5 hPa